Time;durP1;ratioP1;P1;durP2;ratioP2;P2;SDS_P1;SDS_P2;PMS_P1;PMS_P2;Temp;Humidity;BMP_temperature;BMP_pressure;BME280_temperature;BME280_humidity;BME280_pressure;Samples;Min_cycle;Max_cycle;Signal;HPM_P1;HPM_P2
2022/05/10 00:01:03;;;;;;;11.32;6.18;;;13.70;99.90;;;;;;5073224;28;40161;-78
2022/05/10 00:03:36;;;;;;;10.85;6.28;;;13.70;99.90;;;;;;5070475;28;38907;-77
2022/05/10 00:06:04;;;;;;;12.50;6.13;;;13.60;99.90;;;;;;5077258;28;37961;-77
2022/05/10 00:08:30;;;;;;;13.43;6.95;;;13.60;99.90;;;;;;5068937;28;39087;-77
2022/05/10 00:10:57;;;;;;;11.55;6.85;;;13.60;99.90;;;;;;5060613;28;38497;-78
2022/05/10 00:13:26;;;;;;;12.02;6.35;;;13.50;99.90;;;;;;5067394;28;37703;-77
2022/05/10 00:15:52;;;;;;;14.00;7.03;;;13.50;99.90;;;;;;5078852;27;37979;-78
2022/05/10 00:18:21;;;;;;;14.77;7.18;;;13.50;99.90;;;;;;5079012;28;39784;-77
2022/05/10 00:20:47;;;;;;;15.18;6.63;;;13.50;99.90;;;;;;5073405;28;38971;-77
2022/05/10 00:23:14;;;;;;;11.10;6.63;;;13.50;99.90;;;;;;5080028;28;39780;-78
2022/05/10 00:25:41;;;;;;;9.73;6.57;;;13.50;99.90;;;;;;5076678;27;37012;-78
2022/05/10 00:28:08;;;;;;;11.55;6.80;;;13.50;99.90;;;;;;5076525;28;39692;-78
2022/05/10 00:30:35;;;;;;;10.05;6.82;;;13.50;99.90;;;;;;5076026;28;38885;-78
2022/05/10 00:33:01;;;;;;;10.60;6.13;;;13.50;99.90;;;;;;5069311;28;38044;-78
2022/05/10 00:35:30;;;;;;;11.98;6.85;;;13.50;99.90;;;;;;5072306;28;47478;-78
2022/05/10 00:37:59;;;;;;;12.25;6.13;;;13.50;99.90;;;;;;5070374;28;39654;-78
2022/05/10 00:40:30;;;;;;;11.38;6.90;;;13.60;99.90;;;;;;5074588;28;38848;-77
2022/05/10 00:43:21;;;;;;;9.25;5.82;;;13.50;99.90;;;;;;5076141;28;38426;-78
2022/05/10 00:45:54;;;;;;;12.48;6.68;;;13.50;99.90;;;;;;5070173;28;48696;-77
2022/05/10 00:48:58;;;;;;;9.57;6.55;;;13.50;99.90;;;;;;5075127;28;39920;-78
2022/05/10 00:51:55;;;;;;;8.57;6.10;;;13.40;99.90;;;;;;5073956;28;38633;-77
2022/05/10 00:54:28;;;;;;;10.73;6.30;;;13.40;99.90;;;;;;5077471;27;38993;-78
2022/05/10 00:57:11;;;;;;;11.10;7.07;;;13.40;99.90;;;;;;5070927;28;40248;-78
2022/05/10 00:59:59;;;;;;;13.27;7.35;;;13.40;99.90;;;;;;5080812;28;47408;-77
2022/05/10 01:02:31;;;;;;;12.23;6.43;;;13.40;99.90;;;;;;5074450;28;38658;-78
2022/05/10 01:05:02;;;;;;;15.65;7.25;;;13.40;99.90;;;;;;5070492;28;39080;-78
2022/05/10 01:07:35;;;;;;;12.20;6.60;;;13.40;99.90;;;;;;5068574;28;48741;-78
2022/05/10 01:10:10;;;;;;;10.80;6.95;;;13.40;99.90;;;;;;5074421;28;41845;-78
2022/05/10 01:12:49;;;;;;;12.45;7.03;;;13.40;99.90;;;;;;5080352;27;48538;-78
2022/05/10 01:15:16;;;;;;;16.70;8.55;;;13.40;99.90;;;;;;5067068;28;36447;-77
2022/05/10 01:17:44;;;;;;;11.60;7.35;;;13.40;99.90;;;;;;5072569;28;36213;-78
2022/05/10 01:20:13;;;;;;;10.80;7.80;;;13.40;99.90;;;;;;5069117;28;38863;-78
2022/05/10 01:22:56;;;;;;;15.85;8.65;;;13.30;99.90;;;;;;5073106;28;37515;-76
2022/05/10 01:25:45;;;;;;;16.33;9.52;;;13.40;99.90;;;;;;5070134;27;38013;-77
2022/05/10 01:28:35;;;;;;;14.02;9.27;;;13.40;99.90;;;;;;5067209;28;36648;-77
2022/05/10 01:31:08;;;;;;;18.02;9.88;;;13.40;99.90;;;;;;5084769;28;41119;-77
2022/05/10 01:33:47;;;;;;;15.43;9.10;;;13.40;99.90;;;;;;5067114;28;47327;-77
2022/05/10 01:36:36;;;;;;;20.00;10.73;;;13.40;99.90;;;;;;5073046;28;37701;-77
2022/05/10 01:39:15;;;;;;;16.95;10.80;;;13.40;99.90;;;;;;5072990;28;37453;-76
2022/05/10 01:42:09;;;;;;;18.05;10.43;;;13.50;99.90;;;;;;5080133;27;39410;-76
2022/05/10 01:44:38;;;;;;;21.83;12.45;;;13.50;99.90;;;;;;5070493;28;46995;-76
2022/05/10 01:47:15;;;;;;;20.58;11.65;;;13.60;99.90;;;;;;5082052;28;39948;-78
2022/05/10 01:49:47;;;;;;;19.48;13.40;;;13.60;99.90;;;;;;5061175;28;38334;-77
2022/05/10 01:52:35;;;;;;;20.10;13.35;;;13.70;99.90;;;;;;5053832;27;40115;-77
2022/05/10 01:55:18;;;;;;;21.98;13.63;;;13.80;99.90;;;;;;5055581;28;38339;-77
2022/05/10 01:57:45;;;;;;;24.55;14.65;;;13.80;99.90;;;;;;5054266;28;47251;-77
2022/05/10 02:00:30;;;;;;;21.80;14.73;;;13.90;99.90;;;;;;5047323;27;37943;-77
2022/05/10 02:03:11;;;;;;;22.83;14.15;;;14.00;99.90;;;;;;5049296;27;40089;-77
2022/05/10 02:05:47;;;;;;;23.55;13.85;;;14.10;99.90;;;;;;5048395;28;47168;-77
2022/05/10 02:08:25;;;;;;;18.73;12.45;;;14.20;99.90;;;;;;5073864;27;37636;-77
2022/05/10 02:10:55;;;;;;;26.30;14.82;;;14.20;99.90;;;;;;5071244;28;38192;-77
2022/05/10 02:13:44;;;;;;;23.27;13.75;;;14.40;99.90;;;;;;5065755;28;38746;-78
2022/05/10 02:16:22;;;;;;;20.42;13.98;;;14.40;99.90;;;;;;5061393;28;36006;-77
2022/05/10 02:18:59;;;;;;;19.55;12.88;;;14.50;99.90;;;;;;5075779;28;37410;-77
2022/05/10 02:21:43;;;;;;;24.95;13.45;;;14.50;99.90;;;;;;5058559;28;38318;-77
2022/05/10 02:24:16;;;;;;;21.85;12.23;;;14.50;99.90;;;;;;5054518;28;40125;-77
2022/05/10 02:26:49;;;;;;;23.73;12.63;;;14.60;99.90;;;;;;5051910;28;38500;-77
2022/05/10 02:29:41;;;;;;;23.73;12.32;;;14.60;99.90;;;;;;5046461;28;37034;-77
2022/05/10 02:35:04;;;;;;;21.45;11.45;;;14.70;99.90;;;;;;5053851;28;39133;-77
2022/05/10 02:37:31;;;;;;;20.13;12.90;;;14.70;99.90;;;;;;5072387;28;47387;-78
2022/05/10 02:39:58;;;;;;;18.13;11.43;;;14.70;99.90;;;;;;5072296;28;38200;-77
2022/05/10 02:42:25;;;;;;;20.60;11.77;;;14.80;99.90;;;;;;5067923;27;37346;-76
2022/05/10 02:44:54;;;;;;;18.88;11.55;;;14.80;99.90;;;;;;5068752;27;39469;-77
2022/05/10 02:47:35;;;;;;;18.55;12.27;;;14.80;99.90;;;;;;5083049;28;38381;-77
2022/05/10 02:50:12;;;;;;;24.38;11.77;;;14.90;99.90;;;;;;5070756;27;38166;-78
2022/05/10 02:52:39;;;;;;;18.52;11.52;;;14.90;99.90;;;;;;5070328;28;47144;-77
2022/05/10 02:55:11;;;;;;;20.95;10.85;;;14.90;99.90;;;;;;5070301;28;40663;-77
2022/05/10 02:57:38;;;;;;;20.38;11.65;;;15.00;99.90;;;;;;5070510;28;37999;-76
2022/05/10 03:00:06;;;;;;;21.08;11.65;;;15.00;99.90;;;;;;5068486;28;39818;-77
2022/05/10 03:02:39;;;;;;;21.67;12.02;;;15.00;99.90;;;;;;5067274;28;38359;-77
2022/05/10 03:05:07;;;;;;;23.13;12.68;;;15.00;99.90;;;;;;5067916;27;40748;-77
2022/05/10 03:07:34;;;;;;;19.58;12.30;;;15.00;99.90;;;;;;5069217;28;38645;-77
2022/05/10 03:10:00;;;;;;;22.42;11.95;;;15.00;99.90;;;;;;5072225;27;39145;-78
2022/05/10 03:12:26;;;;;;;21.70;12.80;;;15.00;99.90;;;;;;5061837;28;39180;-77
2022/05/10 03:14:55;;;;;;;17.88;11.13;;;15.00;99.90;;;;;;5050625;28;39840;-77
2022/05/10 03:17:21;;;;;;;28.63;13.68;;;15.00;99.90;;;;;;5046003;28;36603;-77
2022/05/10 03:19:47;;;;;;;19.20;11.25;;;15.10;99.90;;;;;;5077053;28;38792;-77
2022/05/10 03:22:13;;;;;;;22.95;12.20;;;15.10;99.90;;;;;;5074636;27;38380;-77
2022/05/10 03:24:39;;;;;;;18.80;11.82;;;15.20;99.90;;;;;;5085516;28;40165;-78
2022/05/10 03:27:08;;;;;;;19.73;11.55;;;15.20;99.90;;;;;;5094668;27;39336;-77
2022/05/10 03:29:34;;;;;;;19.13;11.65;;;15.20;99.90;;;;;;5073749;28;39243;-78
2022/05/10 03:32:00;;;;;;;22.55;12.00;;;15.20;99.90;;;;;;5088792;28;37547;-77
2022/05/10 03:37:11;;;;;;;24.35;12.77;;;15.20;99.90;;;;;;5068393;27;39947;-77
2022/05/10 03:39:37;;;;;;;20.38;12.00;;;15.20;99.90;;;;;;5066019;28;38097;-77
2022/05/10 03:42:04;;;;;;;18.33;10.85;;;15.20;99.90;;;;;;5063112;28;39111;-78
2022/05/10 03:44:31;;;;;;;22.45;12.75;;;15.20;99.90;;;;;;5065592;28;41094;-78
2022/05/10 03:46:57;;;;;;;22.15;11.75;;;15.20;99.90;;;;;;5067946;28;40105;-77
2022/05/10 03:49:24;;;;;;;23.17;11.85;;;15.20;99.90;;;;;;5072573;28;38537;-77
2022/05/10 03:51:50;;;;;;;23.25;11.52;;;15.20;99.90;;;;;;5064760;28;38191;-77
2022/05/10 03:54:16;;;;;;;19.77;11.30;;;15.20;99.90;;;;;;5090835;27;40697;-77
2022/05/10 03:56:42;;;;;;;18.90;11.75;;;15.20;99.90;;;;;;5075427;27;38120;-78
2022/05/10 03:59:08;;;;;;;23.85;12.90;;;15.20;99.90;;;;;;5067870;28;38467;-78
2022/05/10 04:01:34;;;;;;;20.83;11.50;;;15.20;99.90;;;;;;5066742;28;38222;-77
2022/05/10 04:04:03;;;;;;;17.27;11.90;;;15.10;99.90;;;;;;5072309;28;38903;-77
2022/05/10 04:06:30;;;;;;;17.65;10.43;;;15.20;99.90;;;;;;5053048;28;49543;-78
2022/05/10 04:08:56;;;;;;;22.05;11.40;;;15.20;99.90;;;;;;5051169;28;38046;-77
2022/05/10 04:11:22;;;;;;;22.52;12.57;;;15.20;99.90;;;;;;5052203;28;37967;-77
2022/05/10 04:13:48;;;;;;;21.75;11.70;;;15.20;99.90;;;;;;5060960;27;39128;-78
2022/05/10 04:16:15;;;;;;;21.90;11.75;;;15.20;99.90;;;;;;5055479;28;38503;-77
2022/05/10 04:18:41;;;;;;;22.77;11.77;;;15.20;99.90;;;;;;5065843;27;38601;-77
2022/05/10 04:21:08;;;;;;;23.40;12.13;;;15.20;99.90;;;;;;5079613;27;37250;-78
2022/05/10 04:23:35;;;;;;;21.30;12.88;;;15.30;99.90;;;;;;5074056;27;40378;-77
2022/05/10 04:26:03;;;;;;;21.23;11.95;;;15.30;99.90;;;;;;5060833;28;40294;-77
2022/05/10 04:28:30;;;;;;;23.88;12.63;;;15.30;99.90;;;;;;5079059;28;47167;-78
2022/05/10 04:30:57;;;;;;;21.92;12.15;;;15.30;99.90;;;;;;5075597;27;37315;-77
2022/05/10 04:33:23;;;;;;;22.83;11.90;;;15.30;99.90;;;;;;5065033;27;38782;-77
2022/05/10 04:35:49;;;;;;;25.10;12.88;;;15.30;99.90;;;;;;5076732;28;36694;-78
2022/05/10 04:38:15;;;;;;;20.55;11.63;;;15.40;99.90;;;;;;5070024;27;38103;-77
2022/05/10 04:43:27;;;;;;;21.40;11.70;;;15.40;99.90;;;;;;5070369;28;21364;-78
2022/05/10 04:45:53;;;;;;;22.75;12.88;;;15.50;99.90;;;;;;5073512;28;39191;-78
2022/05/10 04:48:19;;;;;;;22.58;12.80;;;15.50;99.90;;;;;;5076629;28;37962;-78
2022/05/10 04:50:46;;;;;;;21.67;12.45;;;15.50;99.90;;;;;;5076411;28;36474;-78
2022/05/10 04:53:12;;;;;;;22.45;12.18;;;15.60;99.90;;;;;;5072167;27;39465;-78
2022/05/10 04:55:38;;;;;;;23.02;12.88;;;15.60;99.90;;;;;;5079122;28;38680;-77
2022/05/10 04:58:04;;;;;;;22.02;13.30;;;15.70;99.90;;;;;;5077355;27;39971;-79
2022/05/10 05:00:30;;;;;;;26.98;12.85;;;15.70;99.90;;;;;;5045126;28;38283;-81
2022/05/10 05:02:56;;;;;;;21.33;12.25;;;15.80;99.90;;;;;;5073636;27;37233;-80
2022/05/10 05:05:23;;;;;;;24.08;13.43;;;15.90;99.90;;;;;;5062643;27;38542;-79
2022/05/10 05:07:49;;;;;;;27.67;12.73;;;15.90;99.90;;;;;;5065105;28;39607;-83
2022/05/10 05:10:15;;;;;;;23.67;13.10;;;16.00;99.90;;;;;;5067395;27;38009;-80
2022/05/10 05:12:41;;;;;;;24.85;12.35;;;16.00;99.90;;;;;;5079488;27;40609;-80
2022/05/10 05:15:10;;;;;;;26.05;12.65;;;16.10;99.90;;;;;;5051047;28;40102;-81
2022/05/10 05:17:37;;;;;;;24.15;12.07;;;16.20;99.90;;;;;;5051228;28;38714;-81
2022/05/10 05:20:04;;;;;;;25.75;12.95;;;16.20;99.90;;;;;;5053544;28;37711;-79
2022/05/10 05:22:30;;;;;;;22.90;12.77;;;16.30;99.90;;;;;;5049860;28;38471;-80
2022/05/10 05:24:57;;;;;;;29.42;13.43;;;16.30;99.90;;;;;;5046652;28;38074;-80
2022/05/10 05:27:23;;;;;;;23.35;12.40;;;16.30;99.90;;;;;;5070292;28;37972;-79
2022/05/10 05:29:49;;;;;;;23.35;12.57;;;16.40;99.90;;;;;;5078365;28;37595;-80
2022/05/10 05:32:18;;;;;;;24.60;12.80;;;16.40;99.90;;;;;;5068185;28;39653;-79
2022/05/10 05:34:44;;;;;;;24.42;12.07;;;16.50;99.90;;;;;;5102228;27;39420;-79
2022/05/10 05:39:54;;;;;;;25.70;12.68;;;16.60;99.90;;;;;;5068051;28;38208;-80
2022/05/10 05:42:21;;;;;;;24.63;12.10;;;16.70;99.90;;;;;;5071108;28;39362;-81
2022/05/10 05:44:47;;;;;;;20.40;12.07;;;16.80;99.90;;;;;;5076152;28;38572;-81
2022/05/10 05:47:13;;;;;;;24.55;12.50;;;16.90;99.90;;;;;;5079338;27;37294;-81
2022/05/10 05:49:39;;;;;;;25.27;12.73;;;16.90;99.90;;;;;;5078752;27;38559;-80
2022/05/10 05:52:05;;;;;;;20.95;11.75;;;17.00;99.90;;;;;;5074809;28;40060;-82
2022/05/10 05:54:32;;;;;;;23.95;13.23;;;17.00;99.90;;;;;;5080068;27;39481;-80
2022/05/10 05:57:02;;;;;;;25.52;12.45;;;17.00;99.90;;;;;;5079011;28;39180;-82
2022/05/10 05:59:28;;;;;;;23.52;12.55;;;17.00;99.90;;;;;;5079721;28;47798;-81
2022/05/10 06:01:55;;;;;;;24.05;12.27;;;17.10;99.90;;;;;;5080838;28;38510;-82
2022/05/10 06:04:21;;;;;;;23.27;11.88;;;17.10;99.90;;;;;;5077570;28;38077;-82
2022/05/10 06:06:47;;;;;;;26.95;12.70;;;17.20;99.90;;;;;;5072765;27;37707;-83
2022/05/10 06:09:14;;;;;;;22.60;11.82;;;17.20;99.90;;;;;;5081315;28;37966;-83
2022/05/10 06:11:40;;;;;;;20.48;11.13;;;17.30;99.90;;;;;;5078875;28;37294;-81
2022/05/10 06:14:07;;;;;;;19.20;10.52;;;17.40;99.90;;;;;;5083512;27;39450;-82
2022/05/10 06:16:33;;;;;;;18.27;10.18;;;17.40;99.90;;;;;;5076252;28;39923;-78
2022/05/10 06:18:59;;;;;;;16.67;10.60;;;17.50;99.90;;;;;;5077679;28;37880;-78
2022/05/10 06:21:25;;;;;;;20.60;10.77;;;17.60;99.90;;;;;;5081506;28;36543;-80
2022/05/10 06:23:52;;;;;;;22.38;10.68;;;17.70;99.90;;;;;;5086306;27;38293;-81
2022/05/10 06:26:18;;;;;;;21.02;9.57;;;17.80;99.90;;;;;;5077589;27;38356;-82
2022/05/10 06:28:44;;;;;;;15.82;9.57;;;17.80;99.90;;;;;;5082152;28;36481;-84
2022/05/10 06:31:10;;;;;;;19.90;10.02;;;17.90;99.90;;;;;;5071115;28;37592;-82
2022/05/10 06:33:36;;;;;;;12.82;8.25;;;17.90;99.90;;;;;;5071416;28;39308;-84
2022/05/10 06:36:03;;;;;;;14.65;8.27;;;18.00;99.90;;;;;;5071748;28;37512;-80
2022/05/10 06:38:30;;;;;;;20.30;8.75;;;18.10;99.90;;;;;;5075558;28;36839;-80
2022/05/10 06:41:02;;;;;;;17.70;9.18;;;18.20;99.90;;;;;;5078448;28;40455;-80
2022/05/10 06:43:35;;;;;;;16.40;8.52;;;18.40;99.90;;;;;;5072324;28;47323;-80
2022/05/10 06:46:12;;;;;;;18.73;8.52;;;18.40;99.90;;;;;;5076810;28;38336;-79
2022/05/10 06:48:39;;;;;;;18.40;9.48;;;18.50;99.90;;;;;;5085158;28;37569;-80
2022/05/10 06:51:07;;;;;;;16.70;8.18;;;18.50;99.90;;;;;;5083035;28;37762;-81
2022/05/10 06:53:34;;;;;;;18.70;8.48;;;18.50;99.90;;;;;;5085339;28;39898;-77
2022/05/10 06:56:00;;;;;;;13.88;8.55;;;18.60;99.90;;;;;;5080896;28;39028;-76
2022/05/10 06:58:27;;;;;;;14.32;8.02;;;18.60;99.90;;;;;;5086267;28;45798;-78
2022/05/10 07:00:54;;;;;;;14.35;7.45;;;18.70;99.90;;;;;;5078974;28;37848;-77
2022/05/10 07:03:32;;;;;;;18.17;8.40;;;18.80;99.90;;;;;;5091070;27;37889;-80
2022/05/10 07:06:00;;;;;;;16.90;8.80;;;18.80;99.90;;;;;;5079824;28;37037;-78
2022/05/10 07:08:27;;;;;;;16.58;8.25;;;18.90;99.90;;;;;;5066035;28;36339;-79
2022/05/10 07:10:54;;;;;;;14.75;8.70;;;18.70;99.90;;;;;;5067978;28;39362;-82
2022/05/10 07:13:23;;;;;;;13.98;9.10;;;18.70;99.90;;;;;;5076955;27;38108;-82
2022/05/10 07:15:49;;;;;;;13.05;8.10;;;18.80;99.90;;;;;;5077456;28;36864;-77
2022/05/10 07:18:17;;;;;;;19.88;8.85;;;18.90;99.90;;;;;;5071054;28;37090;-76
2022/05/10 07:20:44;;;;;;;15.30;7.88;;;19.00;99.90;;;;;;5077628;28;40520;-77
2022/05/10 07:23:11;;;;;;;14.88;7.18;;;19.00;99.90;;;;;;5087793;27;37858;-76
2022/05/10 07:25:38;;;;;;;12.30;6.93;;;19.10;99.90;;;;;;5087508;28;38362;-76
2022/05/10 07:28:08;;;;;;;10.73;6.07;;;19.20;99.90;;;;;;5078545;28;36153;-76
2022/05/10 07:30:35;;;;;;;11.55;6.05;;;19.40;99.90;;;;;;5076417;28;39087;-77
2022/05/10 07:33:02;;;;;;;10.25;5.97;;;19.50;99.90;;;;;;5086471;28;37242;-77
2022/05/10 07:38:15;;;;;;;8.80;5.10;;;19.80;99.90;;;;;;5089328;28;37592;-77
2022/05/10 07:40:43;;;;;;;9.48;5.32;;;19.90;99.90;;;;;;5062233;28;37988;-78
2022/05/10 07:43:10;;;;;;;9.30;5.35;;;20.00;99.90;;;;;;5072686;28;37499;-76
2022/05/10 07:45:36;;;;;;;7.53;4.90;;;20.10;99.90;;;;;;5086131;27;36906;-77
2022/05/10 07:48:03;;;;;;;8.57;5.38;;;20.20;99.90;;;;;;5071648;27;36926;-77
2022/05/10 07:50:29;;;;;;;9.65;4.68;;;20.20;99.90;;;;;;5054652;28;39871;-77
2022/05/10 07:52:55;;;;;;;8.48;5.40;;;20.10;99.90;;;;;;5066241;28;38887;-77
2022/05/10 07:55:21;;;;;;;10.20;5.25;;;20.10;99.90;;;;;;5055756;27;38845;-79
2022/05/10 07:57:47;;;;;;;8.50;4.95;;;20.10;99.90;;;;;;5054498;28;36555;-76
2022/05/10 08:00:14;;;;;;;8.27;5.47;;;20.20;99.90;;;;;;5049819;27;38543;-79
2022/05/10 08:02:43;;;;;;;9.10;5.93;;;20.30;99.90;;;;;;5056114;28;37334;-77
2022/05/10 08:05:12;;;;;;;8.77;5.25;;;20.20;99.90;;;;;;5061068;27;38558;-77
2022/05/10 08:07:38;;;;;;;9.20;5.03;;;20.20;99.90;;;;;;5056746;28;37748;-77
2022/05/10 08:10:08;;;;;;;10.00;6.47;;;20.50;99.90;;;;;;5071493;28;39217;-77
2022/05/10 08:12:34;;;;;;;8.77;5.45;;;20.70;99.90;;;;;;5078094;28;39053;-77
2022/05/10 08:15:03;;;;;;;10.80;5.63;;;20.70;99.90;;;;;;5086797;28;37981;-77
2022/05/10 08:17:33;;;;;;;13.77;5.60;;;20.60;99.90;;;;;;5086405;28;47608;-78
2022/05/10 08:19:59;;;;;;;13.93;5.75;;;20.60;99.90;;;;;;5089700;28;37695;-78
2022/05/10 08:22:25;;;;;;;14.25;6.38;;;20.90;99.90;;;;;;5076292;28;38799;-78
2022/05/10 08:24:52;;;;;;;9.52;5.68;;;21.10;99.90;;;;;;5075725;28;38374;-77
2022/05/10 08:27:18;;;;;;;12.32;5.55;;;21.10;99.90;;;;;;5077441;28;37718;-78
2022/05/10 08:29:44;;;;;;;9.13;5.25;;;21.20;99.90;;;;;;5055822;28;39679;-78
2022/05/10 08:32:10;;;;;;;7.85;5.25;;;21.20;99.90;;;;;;5062057;28;38433;-78
2022/05/10 08:34:36;;;;;;;11.75;5.40;;;21.20;99.90;;;;;;5081425;28;38572;-78
2022/05/10 08:37:04;;;;;;;10.43;5.45;;;21.50;99.90;;;;;;5076697;28;36059;-78
2022/05/10 08:39:31;;;;;;;10.32;5.00;;;21.60;99.90;;;;;;5077389;28;39409;-79
2022/05/10 08:42:01;;;;;;;10.80;5.57;;;21.60;99.90;;;;;;5073522;28;39567;-78
2022/05/10 08:44:29;;;;;;;12.40;5.13;;;21.60;99.90;;;;;;5080621;28;47313;-79
2022/05/10 08:46:59;;;;;;;9.48;5.20;;;21.50;99.90;;;;;;5084709;27;36753;-79
2022/05/10 08:49:39;;;;;;;13.27;5.03;;;21.50;99.90;;;;;;5079887;28;38663;-77
2022/05/10 08:52:06;;;;;;;10.18;5.10;;;21.50;99.90;;;;;;5074936;27;38698;-78
2022/05/10 08:54:36;;;;;;;10.43;4.75;;;21.60;99.90;;;;;;5085464;28;39704;-79
2022/05/10 08:57:26;;;;;;;12.15;5.82;;;21.70;99.90;;;;;;5081547;27;37449;-78
2022/05/10 08:59:58;;;;;;;7.88;5.10;;;21.70;99.90;;;;;;5065559;28;37728;-79
2022/05/10 09:02:41;;;;;;;9.57;5.40;;;21.70;99.90;;;;;;5077659;27;37955;-78
2022/05/10 09:05:46;;;;;;;6.32;4.53;;;21.70;99.90;;;;;;5096280;27;38717;-79
2022/05/10 09:08:48;;;;;;;13.38;5.75;;;21.90;99.90;;;;;;5080812;27;38525;-77
2022/05/10 09:11:15;;;;;;;7.90;5.17;;;21.90;99.90;;;;;;5021755;28;39681;-78
2022/05/10 09:13:42;;;;;;;8.75;5.00;;;21.80;99.90;;;;;;5067031;27;38797;-78
2022/05/10 09:16:10;;;;;;;8.75;5.05;;;21.70;99.90;;;;;;5079357;28;40163;-78
2022/05/10 09:18:39;;;;;;;10.52;5.53;;;21.80;99.90;;;;;;5081789;28;38513;-78
2022/05/10 09:21:32;;;;;;;12.63;5.53;;;21.80;99.90;;;;;;5078743;28;38689;-78
2022/05/10 09:24:29;;;;;;;7.00;4.72;;;22.00;99.90;;;;;;5078838;28;39660;-77
2022/05/10 09:27:05;;;;;;;8.07;4.78;;;22.40;99.90;;;;;;5091602;28;47461;-77
2022/05/10 09:29:44;;;;;;;7.60;4.40;;;22.60;99.90;;;;;;5079255;28;47255;-78
2022/05/10 09:35:24;;;;;;;9.52;5.43;;;22.70;99.90;;;;;;5088758;27;39171;-77
2022/05/10 09:38:06;;;;;;;7.13;4.72;;;22.80;99.90;;;;;;5078556;27;46764;-77
2022/05/10 09:40:41;;;;;;;6.70;5.40;;;23.10;99.90;;;;;;5075802;27;48510;-78
2022/05/10 09:43:22;;;;;;;9.38;5.18;;;23.10;99.90;;;;;;5092643;27;39662;-77
2022/05/10 09:46:17;;;;;;;8.63;4.70;;;23.30;99.90;;;;;;5088270;28;38263;-78
2022/05/10 09:48:43;;;;;;;9.18;5.00;;;23.30;99.90;;;;;;5070627;28;47479;-77
2022/05/10 09:51:33;;;;;;;8.50;5.60;;;23.60;99.90;;;;;;5099698;27;38509;-79
2022/05/10 09:54:13;;;;;;;9.35;5.10;;;23.50;99.90;;;;;;5077529;28;38707;-78
2022/05/10 09:56:43;;;;;;;8.52;4.68;;;23.90;99.90;;;;;;5085044;27;48724;-78
2022/05/10 09:59:11;;;;;;;10.63;5.55;;;24.10;99.90;;;;;;5082324;28;38896;-78
2022/05/10 10:01:47;;;;;;;7.72;4.60;;;23.80;99.90;;;;;;5076482;28;36979;-78
2022/05/10 10:04:21;;;;;;;6.70;4.25;;;23.60;99.90;;;;;;5078504;28;39860;-79
2022/05/10 10:07:09;;;;;;;8.98;5.03;;;23.30;99.90;;;;;;5078168;28;39523;-78
2022/05/10 10:09:38;;;;;;;14.52;5.20;;;23.20;99.90;;;;;;5082269;28;47238;-79
2022/05/10 10:12:13;;;;;;;11.68;5.78;;;23.50;99.90;;;;;;5086243;28;38541;-78
2022/05/10 10:14:48;;;;;;;11.63;5.18;;;23.80;99.90;;;;;;5082599;28;37335;-80
2022/05/10 10:17:22;;;;;;;9.98;5.97;;;24.50;99.90;;;;;;5084211;27;39886;-78
2022/05/10 10:20:03;;;;;;;11.63;6.70;;;24.60;99.90;;;;;;5079507;28;38981;-76
2022/05/10 10:22:49;;;;;;;10.02;5.70;;;24.00;99.90;;;;;;5095442;28;47419;-79
2022/05/10 10:25:34;;;;;;;8.15;5.10;;;23.70;99.90;;;;;;5082899;27;39038;-78
2022/05/10 10:28:15;;;;;;;9.27;5.65;;;23.90;99.90;;;;;;5114397;27;39253;-77
2022/05/10 10:30:57;;;;;;;15.30;5.83;;;24.30;99.90;;;;;;5059671;28;48459;-78
2022/05/10 10:33:47;;;;;;;10.75;5.65;;;24.30;99.90;;;;;;5062368;28;36424;-79
2022/05/10 10:36:18;;;;;;;9.70;5.18;;;24.20;99.90;;;;;;5057150;28;40935;-81
2022/05/10 10:39:05;;;;;;;11.63;5.28;;;24.30;99.90;;;;;;5088552;27;37387;-79
2022/05/10 10:41:39;;;;;;;6.75;5.10;;;24.00;99.90;;;;;;5092031;27;46993;-79
2022/05/10 10:44:26;;;;;;;12.93;6.10;;;23.70;99.90;;;;;;5070323;27;37732;-78
2022/05/10 10:47:06;;;;;;;10.65;6.97;;;23.80;99.90;;;;;;5067577;28;38906;-79
2022/05/10 10:49:43;;;;;;;8.75;5.60;;;23.90;99.90;;;;;;5096871;27;46955;-79
2022/05/10 10:52:10;;;;;;;7.80;5.57;;;23.50;99.90;;;;;;5057865;27;38029;-80
2022/05/10 10:54:36;;;;;;;11.98;6.00;;;23.20;99.90;;;;;;5039091;28;38124;-78
2022/05/10 10:57:26;;;;;;;9.57;6.20;;;23.20;99.90;;;;;;5056653;27;38291;-79
2022/05/10 11:00:07;;;;;;;10.20;6.20;;;23.10;99.90;;;;;;5047942;28;40068;-79
2022/05/10 11:02:39;;;;;;;11.65;7.43;;;23.00;99.90;;;;;;5065936;28;47316;-79
2022/05/10 11:05:23;;;;;;;11.73;6.97;;;22.90;99.90;;;;;;5055309;27;38477;-79
2022/05/10 11:08:21;;;;;;;11.23;6.68;;;23.10;99.90;;;;;;5060004;28;38884;-79
2022/05/10 11:11:08;;;;;;;14.93;6.00;;;23.30;99.90;;;;;;5054273;28;48643;-80
2022/05/10 11:13:46;;;;;;;9.15;5.65;;;23.70;99.90;;;;;;5083881;27;47165;-79
2022/05/10 11:16:35;;;;;;;9.35;5.82;;;23.70;99.90;;;;;;5055218;27;37002;-79
2022/05/10 11:19:29;;;;;;;10.20;5.57;;;23.90;99.90;;;;;;5082932;27;40729;-79
2022/05/10 11:22:13;;;;;;;12.63;6.40;;;23.50;99.90;;;;;;5055277;28;47359;-78
2022/05/10 11:24:52;;;;;;;13.40;5.40;;;23.20;99.90;;;;;;5094558;27;47122;-78
2022/05/10 11:27:44;;;;;;;9.93;6.15;;;23.30;99.90;;;;;;5056735;27;38030;-77
2022/05/10 11:30:15;;;;;;;8.60;5.53;;;23.30;99.90;;;;;;5054498;27;38663;-77
2022/05/10 11:33:03;;;;;;;8.60;4.40;;;23.40;99.90;;;;;;5081788;28;38177;-78
2022/05/10 11:35:50;;;;;;;6.40;4.50;;;23.40;99.90;;;;;;5089132;28;47440;-79
2022/05/10 11:38:25;;;;;;;8.35;4.68;;;24.00;99.90;;;;;;5064962;27;36839;-79
2022/05/10 11:41:07;;;;;;;6.78;4.90;;;24.60;99.90;;;;;;5075401;28;40362;-78
2022/05/10 11:43:48;;;;;;;7.85;4.93;;;24.70;99.90;;;;;;5090107;27;45302;-77
2022/05/10 11:46:48;;;;;;;12.73;4.67;;;25.20;99.90;;;;;;5086328;27;38577;-79
2022/05/10 11:49:39;;;;;;;5.80;4.32;;;25.60;99.90;;;;;;5071144;28;37206;-79
2022/05/10 11:52:32;;;;;;;10.52;4.47;;;25.10;99.90;;;;;;5079439;27;38889;-77
2022/05/10 11:55:18;;;;;;;6.53;3.65;;;25.00;99.90;;;;;;5077173;27;39550;-78
2022/05/10 11:57:44;;;;;;;8.10;3.90;;;24.60;99.90;;;;;;5078286;28;47265;-79
2022/05/10 12:00:32;;;;;;;7.70;3.78;;;24.50;99.90;;;;;;5073615;27;38209;-79
2022/05/10 12:03:09;;;;;;;8.90;4.03;;;24.20;99.90;;;;;;5089569;27;39831;-78
2022/05/10 12:05:39;;;;;;;9.80;3.40;;;24.00;99.90;;;;;;5091950;27;47359;-79
2022/05/10 12:08:24;;;;;;;4.50;3.30;;;23.50;99.90;;;;;;5080067;28;38197;-78
2022/05/10 12:10:50;;;;;;;6.70;2.92;;;23.20;99.90;;;;;;5077695;28;38914;-79
2022/05/10 12:21:19;;;;;;;6.30;3.00;;;23.00;99.90;;;;;;5081763;27;39605;-79
2022/05/10 12:22:19;;;;;;;5.47;2.22;;;22.60;99.90;;;;;;5075874;28;37959;-77
2022/05/10 12:24:46;;;;;;;6.53;2.80;;;22.60;99.90;;;;;;5079281;28;38930;-79
2022/05/10 12:27:12;;;;;;;5.47;2.17;;;22.60;99.90;;;;;;5078249;28;38402;-79
2022/05/10 12:29:38;;;;;;;4.40;2.00;;;22.60;99.90;;;;;;5075519;28;39781;-79
2022/05/10 12:32:17;;;;;;;4.65;2.10;;;22.50;99.90;;;;;;5078220;28;36940;-79
2022/05/10 12:34:48;;;;;;;7.18;2.20;;;22.70;99.90;;;;;;5071279;27;38846;-80
2022/05/10 12:37:26;;;;;;;6.47;2.25;;;22.80;99.90;;;;;;5076771;28;39440;-78
2022/05/10 12:40:09;;;;;;;5.18;2.45;;;22.90;99.90;;;;;;5075864;28;38742;-78
2022/05/10 12:42:45;;;;;;;3.88;1.95;;;22.80;99.90;;;;;;5074962;28;47108;-78
2022/05/10 12:45:33;;;;;;;3.42;1.50;;;23.10;99.90;;;;;;5063951;28;38988;-77
2022/05/10 12:48:26;;;;;;;2.47;1.30;;;23.40;99.90;;;;;;5076452;28;38992;-78
2022/05/10 12:51:13;;;;;;;3.70;1.25;;;23.20;99.90;;;;;;5070740;28;47089;-78
2022/05/10 12:53:56;;;;;;;3.40;1.80;;;22.80;99.90;;;;;;5079289;28;49331;-78
2022/05/10 12:56:25;;;;;;;3.83;1.38;;;22.70;99.90;;;;;;5071680;28;39520;-78
2022/05/10 12:58:55;;;;;;;6.13;1.85;;;22.70;99.90;;;;;;5075067;28;38809;-78
2022/05/10 13:01:25;;;;;;;3.08;1.50;;;22.70;99.90;;;;;;5081670;28;38477;-77
2022/05/10 13:03:56;;;;;;;4.55;1.30;;;22.40;99.90;;;;;;5058741;28;38866;-78
2022/05/10 13:06:47;;;;;;;2.67;1.30;;;22.20;99.90;;;;;;5076766;27;39897;-78
2022/05/10 13:09:37;;;;;;;4.50;1.20;;;22.20;99.90;;;;;;5083286;27;38422;-78
2022/05/10 13:12:08;;;;;;;4.03;1.40;;;22.00;99.90;;;;;;5078393;27;38900;-77
2022/05/10 13:14:41;;;;;;;2.07;1.30;;;22.00;99.90;;;;;;5068978;28;37623;-78
2022/05/10 13:17:07;;;;;;;3.58;1.17;;;22.00;99.90;;;;;;5063989;27;38159;-80
2022/05/10 13:19:40;;;;;;;3.78;1.27;;;21.80;99.90;;;;;;5051227;28;37977;-78
2022/05/10 13:22:10;;;;;;;2.97;1.00;;;21.70;99.90;;;;;;5052752;27;37924;-78
2022/05/10 13:24:37;;;;;;;3.42;1.17;;;21.70;99.90;;;;;;5095420;27;36825;-78
2022/05/10 13:27:04;;;;;;;1.40;0.70;;;21.70;99.90;;;;;;5054386;28;37904;-78